AIRPORT ID: KHTO

DATE: 2016-01-23 ZULU TIME: 15.35 LOCAL TIME: 10.35


METAR KHTO 231535Z AUTO 08022G39KT 020V140 10SM 00/M01 A2951

ALTIMETER: A2951 Q999

DENSITY ALT: -1200 Ft

WIND DIRECT: 70

WIND SPEED: 22 Gust

WIND CONDITIONS:

VISIBILTY: 10SM 9999M

TEMPERATURE: 32 F 0 C

DEW POINT: 31 F -1 C

HUMID: 97%

LCL: Under 500 feet

RADIO CHECK: 18

ADVISARIES: 49

GREETINGS: 0

CONVERSATIONS: 0